sensor_id;sensor_type;location;lat;lon;timestamp;P1;durP1;ratioP1;P2;durP2;ratioP2
43146;SDS011;28752;48.266;7.402;2024-03-07T21:27:13;4.63;;;3.30;;
43146;SDS011;28752;48.266;7.402;2024-03-07T21:29:41;13.40;;;5.32;;
43146;SDS011;28752;48.266;7.402;2024-03-07T21:32:12;6.35;;;3.15;;
43146;SDS011;28752;48.266;7.402;2024-03-07T21:44:49;4.90;;;3.22;;
43146;SDS011;28752;48.266;7.402;2024-03-07T21:54:18;3.88;;;3.45;;
43146;SDS011;28752;48.266;7.402;2024-03-07T22:04:15;3.88;;;3.25;;
43146;SDS011;28752;48.266;7.402;2024-03-07T22:10:37;4.63;;;4.15;;
43146;SDS011;28752;48.266;7.402;2024-03-07T22:13:38;8.70;;;4.63;;
43146;SDS011;28752;48.266;7.402;2024-03-07T22:16:31;4.80;;;4.40;;
43146;SDS011;28752;48.266;7.402;2024-03-07T22:19:23;3.92;;;2.58;;
43146;SDS011;28752;48.266;7.402;2024-03-07T22:22:07;3.80;;;3.50;;
43146;SDS011;28752;48.266;7.402;2024-03-07T22:24:48;9.35;;;5.53;;
43146;SDS011;28752;48.266;7.402;2024-03-07T22:27:41;9.13;;;6.03;;
43146;SDS011;28752;48.266;7.402;2024-03-07T22:33:33;7.53;;;5.35;;
43146;SDS011;28752;48.266;7.402;2024-03-07T22:36:22;7.40;;;6.07;;
43146;SDS011;28752;48.266;7.402;2024-03-07T22:39:31;11.05;;;8.10;;
43146;SDS011;28752;48.266;7.402;2024-03-07T22:42:18;10.32;;;6.53;;
43146;SDS011;28752;48.266;7.402;2024-03-07T22:47:58;13.88;;;6.72;;
43146;SDS011;28752;48.266;7.402;2024-03-07T22:50:35;6.70;;;4.82;;
43146;SDS011;28752;48.266;7.402;2024-03-07T22:53:12;7.10;;;4.65;;
43146;SDS011;28752;48.266;7.402;2024-03-07T22:55:41;5.72;;;4.75;;
43146;SDS011;28752;48.266;7.402;2024-03-07T22:58:37;4.45;;;4.05;;
43146;SDS011;28752;48.266;7.402;2024-03-07T23:04:27;6.40;;;4.60;;
43146;SDS011;28752;48.266;7.402;2024-03-07T23:07:16;3.92;;;1.90;;
43146;SDS011;28752;48.266;7.402;2024-03-07T23:10:10;3.38;;;2.55;;
43146;SDS011;28752;48.266;7.402;2024-03-07T23:12:44;3.55;;;2.63;;
43146;SDS011;28752;48.266;7.402;2024-03-07T23:15:18;5.00;;;3.88;;
43146;SDS011;28752;48.266;7.402;2024-03-07T23:17:54;4.43;;;1.75;;
43146;SDS011;28752;48.266;7.402;2024-03-07T23:20:42;2.42;;;2.22;;
43146;SDS011;28752;48.266;7.402;2024-03-07T23:23:09;3.00;;;2.70;;
43146;SDS011;28752;48.266;7.402;2024-03-07T23:25:35;5.00;;;3.05;;
43146;SDS011;28752;48.266;7.402;2024-03-07T23:28:01;11.32;;;2.65;;
43146;SDS011;28752;48.266;7.402;2024-03-07T23:30:27;4.45;;;3.50;;
43146;SDS011;28752;48.266;7.402;2024-03-07T23:32:55;3.80;;;2.10;;
43146;SDS011;28752;48.266;7.402;2024-03-07T23:35:22;2.72;;;2.30;;
43146;SDS011;28752;48.266;7.402;2024-03-07T23:37:48;4.45;;;2.13;;
43146;SDS011;28752;48.266;7.402;2024-03-07T23:40:15;2.72;;;2.25;;
43146;SDS011;28752;48.266;7.402;2024-03-07T23:42:41;4.68;;;3.80;;
43146;SDS011;28752;48.266;7.402;2024-03-07T23:45:07;4.25;;;3.47;;
43146;SDS011;28752;48.266;7.402;2024-03-07T23:47:34;5.95;;;2.50;;
43146;SDS011;28752;48.266;7.402;2024-03-07T23:50:00;4.63;;;2.40;;
43146;SDS011;28752;48.266;7.402;2024-03-07T23:52:26;2.20;;;1.42;;
43146;SDS011;28752;48.266;7.402;2024-03-07T23:54:55;4.85;;;3.60;;
43146;SDS011;28752;48.266;7.402;2024-03-07T23:57:23;5.82;;;2.05;;
43146;SDS011;28752;48.266;7.402;2024-03-07T23:59:49;3.67;;;3.37;;
